sensor_id;sensor_type;location;lat;lon;timestamp;pressure;altitude;pressure_sealevel;temperature;humidity
3796;BME280;1913;50.660;7.834;2023-06-10T00:01:41;152788.69;;;19.22;97.85
3796;BME280;1913;50.660;7.834;2023-06-10T00:04:06;152802.56;;;19.28;96.87
3796;BME280;1913;50.660;7.834;2023-06-10T00:06:32;152787.44;;;19.22;97.31
3796;BME280;1913;50.660;7.834;2023-06-10T00:09:04;152782.38;;;19.20;96.08
3796;BME280;1913;50.660;7.834;2023-06-10T00:11:31;152777.34;;;19.18;95.76
3796;BME280;1913;50.660;7.834;2023-06-10T00:13:57;152767.19;;;19.13;96.26
3796;BME280;1913;50.660;7.834;2023-06-10T00:16:23;152772.25;;;19.16;95.26
3796;BME280;1913;50.660;7.834;2023-06-10T00:18:49;152755.84;;;19.09;94.43
3796;BME280;1913;50.660;7.834;2023-06-10T00:21:16;152759.66;;;19.10;94.88
3796;BME280;1913;50.660;7.834;2023-06-10T00:23:42;152759.66;;;19.10;93.27
3796;BME280;1913;50.660;7.834;2023-06-10T00:26:07;152755.84;;;19.09;93.46
3796;BME280;1913;50.660;7.834;2023-06-10T00:28:33;152753.31;;;19.08;92.17
3796;BME280;1913;50.660;7.834;2023-06-10T00:30:59;152760.91;;;19.11;92.26
3796;BME280;1913;50.660;7.834;2023-06-10T00:33:24;152769.75;;;19.14;89.44
3796;BME280;1913;50.660;7.834;2023-06-10T00:35:49;152779.84;;;19.19;89.71
3796;BME280;1913;50.660;7.834;2023-06-10T00:38:15;152765.94;;;19.13;89.80
3796;BME280;1913;50.660;7.834;2023-06-10T00:40:40;152755.84;;;19.09;89.48
3796;BME280;1913;50.660;7.834;2023-06-10T00:43:06;152753.31;;;19.08;89.41
3796;BME280;1913;50.660;7.834;2023-06-10T00:45:32;152743.22;;;19.04;89.00
3796;BME280;1913;50.660;7.834;2023-06-10T00:47:59;152734.38;;;19.00;90.21
3796;BME280;1913;50.660;7.834;2023-06-10T00:50:25;152729.31;;;18.98;88.21
3796;BME280;1913;50.660;7.834;2023-06-10T00:52:51;152731.81;;;18.99;87.96
3796;BME280;1913;50.660;7.834;2023-06-10T00:55:17;152721.72;;;18.95;88.43
3796;BME280;1913;50.660;7.834;2023-06-10T00:57:44;152710.34;;;18.90;87.39
3796;BME280;1913;50.660;7.834;2023-06-10T01:00:11;152724.28;;;18.96;84.81
3796;BME280;1913;50.660;7.834;2023-06-10T01:02:38;152721.72;;;18.95;83.14
3796;BME280;1913;50.660;7.834;2023-06-10T01:05:03;152747.00;;;19.05;78.51
3796;BME280;1913;50.660;7.834;2023-06-10T01:10:19;152749.50;;;19.06;77.98
3796;BME280;1913;50.660;7.834;2023-06-10T01:12:58;152744.47;;;19.04;75.18
3796;BME280;1913;50.660;7.834;2023-06-10T01:15:28;152744.47;;;19.04;75.76
3796;BME280;1913;50.660;7.834;2023-06-10T01:20:20;152721.72;;;18.95;73.69
3796;BME280;1913;50.660;7.834;2023-06-10T01:22:46;152740.66;;;19.03;71.01
3796;BME280;1913;50.660;7.834;2023-06-10T01:25:13;152757.09;;;19.09;71.69
3796;BME280;1913;50.660;7.834;2023-06-10T01:27:40;152749.50;;;19.06;71.06
3796;BME280;1913;50.660;7.834;2023-06-10T01:30:18;152764.69;;;19.12;69.19
3796;BME280;1913;50.660;7.834;2023-06-10T01:32:48;152769.75;;;19.14;68.61
3796;BME280;1913;50.660;7.834;2023-06-10T01:35:15;152773.53;;;19.16;68.78
3796;BME280;1913;50.660;7.834;2023-06-10T01:37:43;152777.34;;;19.18;67.68
3796;BME280;1913;50.660;7.834;2023-06-10T01:40:11;152763.41;;;19.12;68.14
3796;BME280;1913;50.660;7.834;2023-06-10T01:42:37;152747.00;;;19.05;68.63
3796;BME280;1913;50.660;7.834;2023-06-10T01:45:03;152750.81;;;19.07;68.82
3796;BME280;1913;50.660;7.834;2023-06-10T01:47:29;152758.34;;;19.10;69.20
3796;BME280;1913;50.660;7.834;2023-06-10T01:49:54;152749.50;;;19.06;69.88
3796;BME280;1913;50.660;7.834;2023-06-10T01:52:20;152724.28;;;18.96;70.81
3796;BME280;1913;50.660;7.834;2023-06-10T01:54:45;152724.28;;;18.96;71.49
3796;BME280;1913;50.660;7.834;2023-06-10T01:57:10;152726.78;;;18.97;72.05
3796;BME280;1913;50.660;7.834;2023-06-10T01:59:36;152726.78;;;18.97;72.33
3796;BME280;1913;50.660;7.834;2023-06-10T02:02:03;152704.03;;;18.88;74.04
3796;BME280;1913;50.660;7.834;2023-06-10T02:04:29;152667.41;;;18.73;75.01
3796;BME280;1913;50.660;7.834;2023-06-10T02:06:54;152696.44;;;18.85;72.49
3796;BME280;1913;50.660;7.834;2023-06-10T02:09:21;152681.31;;;18.79;72.63
3796;BME280;1913;50.660;7.834;2023-06-10T02:11:48;152691.41;;;18.83;72.69
3796;BME280;1913;50.660;7.834;2023-06-10T02:14:13;152696.44;;;18.85;71.43
3796;BME280;1913;50.660;7.834;2023-06-10T02:16:39;152695.19;;;18.84;70.01
3796;BME280;1913;50.660;7.834;2023-06-10T02:19:04;152691.41;;;18.83;71.07
3796;BME280;1913;50.660;7.834;2023-06-10T02:21:31;152682.56;;;18.79;70.86
3796;BME280;1913;50.660;7.834;2023-06-10T02:23:57;152658.50;;;18.70;72.44
3796;BME280;1913;50.660;7.834;2023-06-10T02:26:22;152672.47;;;18.75;70.73
3796;BME280;1913;50.660;7.834;2023-06-10T02:28:48;152693.94;;;18.84;68.96
3796;BME280;1913;50.660;7.834;2023-06-10T02:31:13;152681.31;;;18.79;69.50
3796;BME280;1913;50.660;7.834;2023-06-10T02:33:39;152697.75;;;18.85;69.25
3796;BME280;1913;50.660;7.834;2023-06-10T02:36:05;152680.00;;;18.78;69.16
3796;BME280;1913;50.660;7.834;2023-06-10T02:38:31;152661.03;;;18.71;70.55
3796;BME280;1913;50.660;7.834;2023-06-10T02:40:56;152637.06;;;18.61;71.59
3796;BME280;1913;50.660;7.834;2023-06-10T02:43:21;152638.31;;;18.61;71.41
3796;BME280;1913;50.660;7.834;2023-06-10T02:45:47;152628.22;;;18.57;71.60
3796;BME280;1913;50.660;7.834;2023-06-10T02:48:12;152619.38;;;18.54;73.03
3796;BME280;1913;50.660;7.834;2023-06-10T02:50:37;152600.41;;;18.46;74.19
3796;BME280;1913;50.660;7.834;2023-06-10T02:53:05;152586.53;;;18.40;74.50
3796;BME280;1913;50.660;7.834;2023-06-10T02:55:30;152565.03;;;18.32;75.23
3796;BME280;1913;50.660;7.834;2023-06-10T02:57:56;152554.94;;;18.28;76.50
3796;BME280;1913;50.660;7.834;2023-06-10T03:00:21;152539.81;;;18.22;77.10
3796;BME280;1913;50.660;7.834;2023-06-10T03:02:47;152543.59;;;18.23;76.88
3796;BME280;1913;50.660;7.834;2023-06-10T03:05:13;152544.84;;;18.24;77.00
3796;BME280;1913;50.660;7.834;2023-06-10T03:07:38;152537.25;;;18.21;78.12
3796;BME280;1913;50.660;7.834;2023-06-10T03:10:05;152513.31;;;18.11;80.19
3796;BME280;1913;50.660;7.834;2023-06-10T03:12:31;152509.50;;;18.09;79.31
3796;BME280;1913;50.660;7.834;2023-06-10T03:14:57;152524.66;;;18.15;78.35
3796;BME280;1913;50.660;7.834;2023-06-10T03:17:23;152495.63;;;18.04;80.58
3796;BME280;1913;50.660;7.834;2023-06-10T03:19:48;152491.81;;;18.02;81.81
3796;BME280;1913;50.660;7.834;2023-06-10T03:22:14;152480.47;;;17.98;81.80
3796;BME280;1913;50.660;7.834;2023-06-10T03:24:40;152467.81;;;17.92;82.07
3796;BME280;1913;50.660;7.834;2023-06-10T03:27:09;152460.28;;;17.89;84.02
3796;BME280;1913;50.660;7.834;2023-06-10T03:29:37;152432.47;;;17.78;86.27
3796;BME280;1913;50.660;7.834;2023-06-10T03:32:03;152424.81;;;17.75;85.55
3796;BME280;1913;50.660;7.834;2023-06-10T03:34:28;152426.19;;;17.76;85.69
3796;BME280;1913;50.660;7.834;2023-06-10T03:36:55;152395.81;;;17.63;88.12
3796;BME280;1913;50.660;7.834;2023-06-10T03:39:21;152392.03;;;17.62;88.86
3796;BME280;1913;50.660;7.834;2023-06-10T03:41:48;152384.47;;;17.59;89.01
3796;BME280;1913;50.660;7.834;2023-06-10T03:44:13;152365.53;;;17.51;90.61
3796;BME280;1913;50.660;7.834;2023-06-10T03:46:39;152361.72;;;17.50;91.40
3796;BME280;1913;50.660;7.834;2023-06-10T03:49:04;152342.78;;;17.42;91.49
3796;BME280;1913;50.660;7.834;2023-06-10T03:51:30;152339.03;;;17.40;92.87
3796;BME280;1913;50.660;7.834;2023-06-10T03:53:55;152350.38;;;17.45;93.56
3796;BME280;1913;50.660;7.834;2023-06-10T03:56:20;152370.56;;;17.53;90.09
3796;BME280;1913;50.660;7.834;2023-06-10T03:58:46;152380.66;;;17.57;90.49
3796;BME280;1913;50.660;7.834;2023-06-10T04:01:11;152402.13;;;17.66;89.42
3796;BME280;1913;50.660;7.834;2023-06-10T04:03:38;152413.47;;;17.70;89.88
3796;BME280;1913;50.660;7.834;2023-06-10T04:06:04;152408.47;;;17.68;91.05
3796;BME280;1913;50.660;7.834;2023-06-10T04:08:30;152413.47;;;17.70;91.07
3796;BME280;1913;50.660;7.834;2023-06-10T04:10:56;152405.91;;;17.67;91.72
3796;BME280;1913;50.660;7.834;2023-06-10T04:13:22;152403.38;;;17.66;92.19
3796;BME280;1913;50.660;7.834;2023-06-10T04:15:47;152421.06;;;17.74;91.27
3796;BME280;1913;50.660;7.834;2023-06-10T04:18:13;152436.28;;;17.80;91.33
3796;BME280;1913;50.660;7.834;2023-06-10T04:20:38;152438.78;;;17.81;91.70
3796;BME280;1913;50.660;7.834;2023-06-10T04:23:04;152460.28;;;17.89;89.95
3796;BME280;1913;50.660;7.834;2023-06-10T04:25:29;152465.28;;;17.91;90.49
3796;BME280;1913;50.660;7.834;2023-06-10T04:27:55;152520.84;;;18.14;88.37
3796;BME280;1913;50.660;7.834;2023-06-10T04:30:20;152605.47;;;18.48;84.73
3796;BME280;1913;50.660;7.834;2023-06-10T04:32:47;152717.94;;;18.94;79.73
3796;BME280;1913;50.660;7.834;2023-06-10T04:35:13;152812.72;;;19.32;77.50
3796;BME280;1913;50.660;7.834;2023-06-10T04:37:40;152860.72;;;19.51;75.30
3796;BME280;1913;50.660;7.834;2023-06-10T04:40:07;152902.47;;;19.68;73.33
3796;BME280;1913;50.660;7.834;2023-06-10T04:42:32;152953.06;;;19.89;71.13
3796;BME280;1913;50.660;7.834;2023-06-10T04:44:58;153041.53;;;20.24;69.82
3796;BME280;1913;50.660;7.834;2023-06-10T04:47:23;153042.81;;;20.25;68.42
3796;BME280;1913;50.660;7.834;2023-06-10T04:49:48;153137.66;;;20.63;66.85
3796;BME280;1913;50.660;7.834;2023-06-10T04:52:14;153195.84;;;20.87;64.19
3796;BME280;1913;50.660;7.834;2023-06-10T04:54:39;153286.91;;;21.23;62.98
3796;BME280;1913;50.660;7.834;2023-06-10T04:57:06;153310.94;;;21.33;61.44
3796;BME280;1913;50.660;7.834;2023-06-10T04:59:33;153354.00;;;21.50;60.03
3796;BME280;1913;50.660;7.834;2023-06-10T05:01:58;153343.91;;;21.46;58.42
3796;BME280;1913;50.660;7.834;2023-06-10T05:04:24;153376.81;;;21.60;57.29
3796;BME280;1913;50.660;7.834;2023-06-10T05:06:49;153386.91;;;21.64;55.64
3796;BME280;1913;50.660;7.834;2023-06-10T05:09:15;153429.94;;;21.81;54.87
3796;BME280;1913;50.660;7.834;2023-06-10T05:11:40;153413.50;;;21.74;55.64
3796;BME280;1913;50.660;7.834;2023-06-10T05:14:06;153402.06;;;21.70;56.64
3796;BME280;1913;50.660;7.834;2023-06-10T05:16:31;153465.38;;;21.95;55.22
3796;BME280;1913;50.660;7.834;2023-06-10T05:18:57;153445.09;;;21.87;55.43
3796;BME280;1913;50.660;7.834;2023-06-10T05:21:22;153467.91;;;21.96;54.81
3796;BME280;1913;50.660;7.834;2023-06-10T05:23:48;153503.34;;;22.11;54.31
3796;BME280;1913;50.660;7.834;2023-06-10T05:26:13;153513.50;;;22.15;54.45
3796;BME280;1913;50.660;7.834;2023-06-10T05:28:39;153538.81;;;22.25;54.12
3796;BME280;1913;50.660;7.834;2023-06-10T05:31:04;153557.81;;;22.33;53.65
3796;BME280;1913;50.660;7.834;2023-06-10T05:33:29;153600.84;;;22.50;54.93
3796;BME280;1913;50.660;7.834;2023-06-10T05:35:55;153695.81;;;22.88;54.10
3796;BME280;1913;50.660;7.834;2023-06-10T05:38:20;153683.13;;;22.83;53.42
3796;BME280;1913;50.660;7.834;2023-06-10T05:40:46;153703.41;;;22.91;52.99
3796;BME280;1913;50.660;7.834;2023-06-10T05:43:11;153661.63;;;22.75;52.14
3796;BME280;1913;50.660;7.834;2023-06-10T05:45:37;153770.56;;;23.18;53.32
3796;BME280;1913;50.660;7.834;2023-06-10T05:48:03;153813.63;;;23.36;50.95
3796;BME280;1913;50.660;7.834;2023-06-10T05:50:28;153838.97;;;23.46;50.14
3796;BME280;1913;50.660;7.834;2023-06-10T05:52:53;153802.22;;;23.31;49.61
3796;BME280;1913;50.660;7.834;2023-06-10T05:55:20;153830.09;;;23.42;50.13
3796;BME280;1913;50.660;7.834;2023-06-10T05:57:45;153830.09;;;23.42;49.74
3796;BME280;1913;50.660;7.834;2023-06-10T06:00:11;153942.88;;;23.88;50.63
3796;BME280;1913;50.660;7.834;2023-06-10T06:02:37;153901.06;;;23.71;48.53
3796;BME280;1913;50.660;7.834;2023-06-10T06:05:02;153960.63;;;23.95;48.22
3796;BME280;1913;50.660;7.834;2023-06-10T06:07:27;153964.41;;;23.97;47.80
3796;BME280;1913;50.660;7.834;2023-06-10T06:09:53;154088.63;;;24.47;46.89
3796;BME280;1913;50.660;7.834;2023-06-10T06:12:18;154121.59;;;24.60;46.47
3796;BME280;1913;50.660;7.834;2023-06-10T06:14:44;154187.47;;;24.87;45.58
3796;BME280;1913;50.660;7.834;2023-06-10T06:17:10;154169.72;;;24.79;44.79
3796;BME280;1913;50.660;7.834;2023-06-10T06:19:35;154222.97;;;25.01;44.50
3796;BME280;1913;50.660;7.834;2023-06-10T06:22:00;154240.72;;;25.08;44.60
3796;BME280;1913;50.660;7.834;2023-06-10T06:24:26;154243.28;;;25.09;44.37
3796;BME280;1913;50.660;7.834;2023-06-10T06:26:51;154321.94;;;25.41;44.46
3796;BME280;1913;50.660;7.834;2023-06-10T06:29:17;154377.72;;;25.63;43.80
3796;BME280;1913;50.660;7.834;2023-06-10T06:31:43;154442.44;;;25.89;42.51
3796;BME280;1913;50.660;7.834;2023-06-10T06:34:08;154566.72;;;26.39;42.50
3796;BME280;1913;50.660;7.834;2023-06-10T06:36:33;154607.41;;;26.56;42.46
3796;BME280;1913;50.660;7.834;2023-06-10T06:39:00;154603.63;;;26.54;41.03
3796;BME280;1913;50.660;7.834;2023-06-10T06:41:27;154665.78;;;26.79;42.09
3796;BME280;1913;50.660;7.834;2023-06-10T06:43:54;154684.81;;;26.87;40.57
3796;BME280;1913;50.660;7.834;2023-06-10T06:46:19;154758.44;;;27.16;40.27
3796;BME280;1913;50.660;7.834;2023-06-10T06:48:46;154731.75;;;27.06;40.69
3796;BME280;1913;50.660;7.834;2023-06-10T06:51:11;154853.66;;;27.55;40.18
3796;BME280;1913;50.660;7.834;2023-06-10T06:53:37;154806.69;;;27.36;40.75
3796;BME280;1913;50.660;7.834;2023-06-10T06:56:07;154827.00;;;27.44;41.05
3796;BME280;1913;50.660;7.834;2023-06-10T06:58:33;154867.56;;;27.60;39.78
3796;BME280;1913;50.660;7.834;2023-06-10T07:00:58;154823.16;;;27.42;41.68
3796;BME280;1913;50.660;7.834;2023-06-10T07:03:23;154912.06;;;27.78;40.00
3796;BME280;1913;50.660;7.834;2023-06-10T07:05:49;154931.13;;;27.86;40.53
3796;BME280;1913;50.660;7.834;2023-06-10T07:08:14;154913.38;;;27.79;39.15
3796;BME280;1913;50.660;7.834;2023-06-10T07:10:40;154932.41;;;27.86;40.71
3796;BME280;1913;50.660;7.834;2023-06-10T07:13:05;155007.28;;;28.16;39.69
3796;BME280;1913;50.660;7.834;2023-06-10T07:15:30;155032.69;;;28.27;39.57
3796;BME280;1913;50.660;7.834;2023-06-10T07:17:56;155012.38;;;28.19;38.40
3796;BME280;1913;50.660;7.834;2023-06-10T07:20:21;155097.47;;;28.53;39.53
3796;BME280;1913;50.660;7.834;2023-06-10T07:22:47;154985.72;;;28.08;38.31
3796;BME280;1913;50.660;7.834;2023-06-10T07:25:12;154952.69;;;27.95;38.46
3796;BME280;1913;50.660;7.834;2023-06-10T07:27:37;155097.47;;;28.53;40.34
3796;BME280;1913;50.660;7.834;2023-06-10T07:30:05;155045.41;;;28.32;38.53
3796;BME280;1913;50.660;7.834;2023-06-10T07:32:33;155033.94;;;28.27;37.48
3796;BME280;1913;50.660;7.834;2023-06-10T07:34:58;155054.31;;;28.35;38.68
3796;BME280;1913;50.660;7.834;2023-06-10T07:37:24;155012.38;;;28.19;37.83
3796;BME280;1913;50.660;7.834;2023-06-10T07:39:49;155055.56;;;28.36;38.66
3796;BME280;1913;50.660;7.834;2023-06-10T07:42:15;155092.44;;;28.51;36.58
3796;BME280;1913;50.660;7.834;2023-06-10T07:44:40;155191.50;;;28.91;35.70
3796;BME280;1913;50.660;7.834;2023-06-10T07:47:06;155232.19;;;29.07;36.23
3796;BME280;1913;50.660;7.834;2023-06-10T07:49:31;155281.72;;;29.27;36.50
3796;BME280;1913;50.660;7.834;2023-06-10T07:51:57;155371.97;;;29.63;36.05
3796;BME280;1913;50.660;7.834;2023-06-10T07:54:22;155346.53;;;29.53;35.94
3796;BME280;1913;50.660;7.834;2023-06-10T07:56:47;155417.75;;;29.81;36.05
3796;BME280;1913;50.660;7.834;2023-06-10T07:59:16;155310.97;;;29.39;34.50
3796;BME280;1913;50.660;7.834;2023-06-10T08:01:41;155265.19;;;29.20;35.32
3796;BME280;1913;50.660;7.834;2023-06-10T08:04:08;155310.97;;;29.39;35.16
3796;BME280;1913;50.660;7.834;2023-06-10T08:06:33;155309.66;;;29.38;34.27
3796;BME280;1913;50.660;7.834;2023-06-10T08:08:58;155448.22;;;29.94;35.61
3796;BME280;1913;50.660;7.834;2023-06-10T08:11:25;155478.72;;;30.06;33.45
3796;BME280;1913;50.660;7.834;2023-06-10T08:13:53;155432.97;;;29.88;35.83
3796;BME280;1913;50.660;7.834;2023-06-10T08:16:18;155370.69;;;29.63;33.78
3796;BME280;1913;50.660;7.834;2023-06-10T08:18:44;155382.16;;;29.67;35.33
3796;BME280;1913;50.660;7.834;2023-06-10T08:21:09;155567.78;;;30.42;34.12
3796;BME280;1913;50.660;7.834;2023-06-10T08:23:35;155508.03;;;30.18;33.72
3796;BME280;1913;50.660;7.834;2023-06-10T08:26:00;155506.75;;;30.17;32.89
3796;BME280;1913;50.660;7.834;2023-06-10T08:28:26;155566.47;;;30.41;32.84
3796;BME280;1913;50.660;7.834;2023-06-10T08:30:51;155574.09;;;30.44;34.58
3796;BME280;1913;50.660;7.834;2023-06-10T08:33:16;155556.28;;;30.37;32.26
3796;BME280;1913;50.660;7.834;2023-06-10T08:35:42;155426.66;;;29.85;30.29
3796;BME280;1913;50.660;7.834;2023-06-10T08:38:07;155553.75;;;30.36;30.21
3796;BME280;1913;50.660;7.834;2023-06-10T08:40:33;155600.78;;;30.55;29.75
3796;BME280;1913;50.660;7.834;2023-06-10T08:45:30;155683.50;;;30.88;31.11
3796;BME280;1913;50.660;7.834;2023-06-10T08:48:02;155664.38;;;30.81;30.52
3796;BME280;1913;50.660;7.834;2023-06-10T08:50:30;155645.28;;;30.73;31.08
3796;BME280;1913;50.660;7.834;2023-06-10T08:52:57;155688.56;;;30.90;29.92
3796;BME280;1913;50.660;7.834;2023-06-10T08:55:29;155834.84;;;31.49;29.87
3796;BME280;1913;50.660;7.834;2023-06-10T08:57:55;155721.63;;;31.04;28.31
3796;BME280;1913;50.660;7.834;2023-06-10T09:00:22;155626.22;;;30.65;29.07
3796;BME280;1913;50.660;7.834;2023-06-10T09:02:47;155715.25;;;31.01;28.43
3796;BME280;1913;50.660;7.834;2023-06-10T09:05:13;155712.72;;;31.00;28.11
3796;BME280;1913;50.660;7.834;2023-06-10T09:07:40;155617.31;;;30.62;28.55
3796;BME280;1913;50.660;7.834;2023-06-10T09:10:06;155583.00;;;30.48;27.77
3796;BME280;1913;50.660;7.834;2023-06-10T09:12:33;155538.50;;;30.30;28.14
3796;BME280;1913;50.660;7.834;2023-06-10T09:15:00;155777.56;;;31.26;28.49
3796;BME280;1913;50.660;7.834;2023-06-10T09:17:27;155772.50;;;31.24;26.62
3796;BME280;1913;50.660;7.834;2023-06-10T09:19:52;155981.16;;;32.08;28.28
3796;BME280;1913;50.660;7.834;2023-06-10T09:22:21;156010.41;;;32.19;26.39
3796;BME280;1913;50.660;7.834;2023-06-10T09:24:47;155991.31;;;32.12;26.27
3796;BME280;1913;50.660;7.834;2023-06-10T09:27:12;155867.88;;;31.62;27.07
3796;BME280;1913;50.660;7.834;2023-06-10T09:29:47;155838.66;;;31.51;25.76
3796;BME280;1913;50.660;7.834;2023-06-10T09:32:18;155892.06;;;31.72;26.57
3796;BME280;1913;50.660;7.834;2023-06-10T09:34:44;155818.31;;;31.42;26.98
3796;BME280;1913;50.660;7.834;2023-06-10T09:37:09;155869.19;;;31.63;27.07
3796;BME280;1913;50.660;7.834;2023-06-10T09:39:37;155806.88;;;31.38;27.04
3796;BME280;1913;50.660;7.834;2023-06-10T09:42:18;155808.16;;;31.38;27.89
3796;BME280;1913;50.660;7.834;2023-06-10T09:44:53;155717.78;;;31.02;26.59
3796;BME280;1913;50.660;7.834;2023-06-10T09:47:22;155583.00;;;30.48;27.58
3796;BME280;1913;50.660;7.834;2023-06-10T09:49:50;155612.25;;;30.60;27.70
3796;BME280;1913;50.660;7.834;2023-06-10T09:52:27;155730.53;;;31.07;28.56
3796;BME280;1913;50.660;7.834;2023-06-10T09:55:00;155726.69;;;31.06;27.45
3796;BME280;1913;50.660;7.834;2023-06-10T09:57:30;155688.56;;;30.90;28.40
3796;BME280;1913;50.660;7.834;2023-06-10T09:59:56;155682.19;;;30.88;27.63
3796;BME280;1913;50.660;7.834;2023-06-10T10:02:21;155772.50;;;31.24;28.01
3796;BME280;1913;50.660;7.834;2023-06-10T10:04:46;155900.97;;;31.76;28.47
3796;BME280;1913;50.660;7.834;2023-06-10T10:07:12;155855.19;;;31.57;25.12
3796;BME280;1913;50.660;7.834;2023-06-10T10:09:39;155758.50;;;31.18;25.37
3796;BME280;1913;50.660;7.834;2023-06-10T10:12:15;155871.72;;;31.64;26.64
3796;BME280;1913;50.660;7.834;2023-06-10T10:14:46;155726.69;;;31.06;27.37
3796;BME280;1913;50.660;7.834;2023-06-10T10:17:14;155626.22;;;30.65;27.63
3796;BME280;1913;50.660;7.834;2023-06-10T10:19:46;155689.81;;;30.91;27.94
3796;BME280;1913;50.660;7.834;2023-06-10T10:22:26;155624.94;;;30.65;27.49
3796;BME280;1913;50.660;7.834;2023-06-10T10:24:57;155518.19;;;30.22;26.18
3796;BME280;1913;50.660;7.834;2023-06-10T10:27:28;155502.88;;;30.16;27.54
3796;BME280;1913;50.660;7.834;2023-06-10T10:29:58;155546.13;;;30.33;26.70
3796;BME280;1913;50.660;7.834;2023-06-10T10:32:38;155529.59;;;30.26;27.75
3796;BME280;1913;50.660;7.834;2023-06-10T10:35:21;155701.28;;;30.95;26.53
3796;BME280;1913;50.660;7.834;2023-06-10T10:37:48;155794.16;;;31.33;28.06
3796;BME280;1913;50.660;7.834;2023-06-10T10:40:14;155809.41;;;31.39;27.11
3796;BME280;1913;50.660;7.834;2023-06-10T10:42:42;155766.13;;;31.21;26.79
3796;BME280;1913;50.660;7.834;2023-06-10T10:45:08;155766.13;;;31.21;26.70
3796;BME280;1913;50.660;7.834;2023-06-10T10:47:35;155824.69;;;31.45;26.32
3796;BME280;1913;50.660;7.834;2023-06-10T10:50:13;155698.72;;;30.94;26.82
3796;BME280;1913;50.660;7.834;2023-06-10T10:52:59;155687.28;;;30.90;27.34
3796;BME280;1913;50.660;7.834;2023-06-10T10:55:25;155750.84;;;31.15;27.17
3796;BME280;1913;50.660;7.834;2023-06-10T10:58:07;155786.47;;;31.30;25.63
3796;BME280;1913;50.660;7.834;2023-06-10T11:00:37;155692.41;;;30.92;26.92
3796;BME280;1913;50.660;7.834;2023-06-10T11:05:48;155731.78;;;31.08;27.90
3796;BME280;1913;50.660;7.834;2023-06-10T11:08:15;155583.00;;;30.48;28.30
3796;BME280;1913;50.660;7.834;2023-06-10T11:11:00;155555.03;;;30.37;29.46
3796;BME280;1913;50.660;7.834;2023-06-10T11:13:27;155602.03;;;30.56;29.29
3796;BME280;1913;50.660;7.834;2023-06-10T11:15:57;155669.50;;;30.83;28.48
3796;BME280;1913;50.660;7.834;2023-06-10T11:18:29;155641.47;;;30.71;28.77
3796;BME280;1913;50.660;7.834;2023-06-10T11:31:21;155716.53;;;31.01;29.49
3796;BME280;1913;50.660;7.834;2023-06-10T11:33:48;155795.41;;;31.33;27.28
3796;BME280;1913;50.660;7.834;2023-06-10T11:36:14;155781.41;;;31.28;27.67
3796;BME280;1913;50.660;7.834;2023-06-10T11:38:43;155641.47;;;30.71;27.75
3796;BME280;1913;50.660;7.834;2023-06-10T11:41:10;155658.06;;;30.78;27.82
3796;BME280;1913;50.660;7.834;2023-06-10T11:43:37;155730.53;;;31.07;28.19
3796;BME280;1913;50.660;7.834;2023-06-10T11:46:02;155714.00;;;31.00;27.95
3796;BME280;1913;50.660;7.834;2023-06-10T11:48:28;155736.91;;;31.10;27.77
3796;BME280;1913;50.660;7.834;2023-06-10T11:50:56;155669.50;;;30.83;28.76
3796;BME280;1913;50.660;7.834;2023-06-10T11:53:21;155813.22;;;31.40;28.96
3796;BME280;1913;50.660;7.834;2023-06-10T11:55:50;155831.00;;;31.47;27.00
3796;BME280;1913;50.660;7.834;2023-06-10T11:58:19;155800.50;;;31.35;28.31
3796;BME280;1913;50.660;7.834;2023-06-10T12:00:53;155935.38;;;31.89;27.50
3796;BME280;1913;50.660;7.834;2023-06-10T12:03:20;155987.53;;;32.10;27.04
3796;BME280;1913;50.660;7.834;2023-06-10T12:08:24;155663.13;;;30.80;29.32
3796;BME280;1913;50.660;7.834;2023-06-10T12:10:49;155696.19;;;30.93;28.97
3796;BME280;1913;50.660;7.834;2023-06-10T12:13:15;155712.72;;;31.00;29.38
3796;BME280;1913;50.660;7.834;2023-06-10T12:15:43;155618.59;;;30.62;27.80
3796;BME280;1913;50.660;7.834;2023-06-10T12:18:24;155660.59;;;30.79;27.67
3796;BME280;1913;50.660;7.834;2023-06-10T12:20:50;155683.50;;;30.88;28.06
3796;BME280;1913;50.660;7.834;2023-06-10T12:23:19;155626.22;;;30.65;28.10
3796;BME280;1913;50.660;7.834;2023-06-10T12:28:20;155721.63;;;31.04;27.92
3796;BME280;1913;50.660;7.834;2023-06-10T12:30:46;155834.84;;;31.49;26.85
3796;BME280;1913;50.660;7.834;2023-06-10T12:33:21;155885.69;;;31.69;26.70
3796;BME280;1913;50.660;7.834;2023-06-10T12:35:51;155926.41;;;31.86;27.41
3796;BME280;1913;50.660;7.834;2023-06-10T12:38:24;155778.81;;;31.27;27.59
3796;BME280;1913;50.660;7.834;2023-06-10T12:40:53;155683.50;;;30.88;26.82
3796;BME280;1913;50.660;7.834;2023-06-10T12:43:24;155570.31;;;30.43;27.00
3796;BME280;1913;50.660;7.834;2023-06-10T12:45:50;155583.00;;;30.48;27.80
3796;BME280;1913;50.660;7.834;2023-06-10T12:48:22;155670.75;;;30.83;27.45
3796;BME280;1913;50.660;7.834;2023-06-10T12:50:52;155804.31;;;31.37;26.05
3796;BME280;1913;50.660;7.834;2023-06-10T12:53:18;155861.56;;;31.60;28.09
3796;BME280;1913;50.660;7.834;2023-06-10T12:55:45;155772.50;;;31.24;26.61
3796;BME280;1913;50.660;7.834;2023-06-10T12:58:11;155870.47;;;31.63;26.58
3796;BME280;1913;50.660;7.834;2023-06-10T13:00:37;155772.50;;;31.24;26.52
3796;BME280;1913;50.660;7.834;2023-06-10T13:03:03;155764.88;;;31.21;27.03
3796;BME280;1913;50.660;7.834;2023-06-10T13:05:31;155680.91;;;30.87;26.70
3796;BME280;1913;50.660;7.834;2023-06-10T13:07:57;155661.84;;;30.80;26.78
3796;BME280;1913;50.660;7.834;2023-06-10T13:10:23;155768.66;;;31.22;25.69
3796;BME280;1913;50.660;7.834;2023-06-10T13:12:49;155781.41;;;31.28;24.77
3796;BME280;1913;50.660;7.834;2023-06-10T13:15:16;155642.75;;;30.72;25.79
3796;BME280;1913;50.660;7.834;2023-06-10T13:17:42;155762.28;;;31.20;27.40
3796;BME280;1913;50.660;7.834;2023-06-10T13:20:08;155513.06;;;30.20;26.91
3796;BME280;1913;50.660;7.834;2023-06-10T13:22:34;155335.06;;;29.48;26.95
3796;BME280;1913;50.660;7.834;2023-06-10T13:25:02;155518.19;;;30.22;27.11
3796;BME280;1913;50.660;7.834;2023-06-10T13:27:28;155595.72;;;30.53;28.90
3796;BME280;1913;50.660;7.834;2023-06-10T13:29:54;155600.78;;;30.55;27.20
3796;BME280;1913;50.660;7.834;2023-06-10T13:32:19;155609.69;;;30.59;27.87
3796;BME280;1913;50.660;7.834;2023-06-10T13:34:45;155617.31;;;30.62;28.36